sensor_id;sensor_type;location;lat;lon;timestamp;temperature;humidity
59881;DHT22;45751;51.380;10.326;2022-10-19T00:00:44;9.70;99.90
59881;DHT22;45751;51.380;10.326;2022-10-19T00:03:11;9.70;99.90
59881;DHT22;45751;51.380;10.326;2022-10-19T00:05:37;9.60;99.90
59881;DHT22;45751;51.380;10.326;2022-10-19T00:08:04;9.60;99.90
59881;DHT22;45751;51.380;10.326;2022-10-19T00:10:31;9.60;99.90
59881;DHT22;45751;51.380;10.326;2022-10-19T00:12:58;9.60;99.90
59881;DHT22;45751;51.380;10.326;2022-10-19T00:15:25;9.60;99.90
59881;DHT22;45751;51.380;10.326;2022-10-19T00:17:52;9.60;99.90
59881;DHT22;45751;51.380;10.326;2022-10-19T00:20:19;9.60;99.90
59881;DHT22;45751;51.380;10.326;2022-10-19T00:22:48;9.60;99.90
59881;DHT22;45751;51.380;10.326;2022-10-19T00:25:16;9.60;99.90
59881;DHT22;45751;51.380;10.326;2022-10-19T00:27:42;9.60;99.90
59881;DHT22;45751;51.380;10.326;2022-10-19T00:30:10;9.50;99.90
59881;DHT22;45751;51.380;10.326;2022-10-19T00:32:36;9.50;99.90
59881;DHT22;45751;51.380;10.326;2022-10-19T00:35:03;9.50;99.90
59881;DHT22;45751;51.380;10.326;2022-10-19T00:37:30;9.40;99.90
59881;DHT22;45751;51.380;10.326;2022-10-19T00:39:57;9.40;99.90
59881;DHT22;45751;51.380;10.326;2022-10-19T00:42:24;9.30;99.90
59881;DHT22;45751;51.380;10.326;2022-10-19T00:47:19;9.30;99.90
59881;DHT22;45751;51.380;10.326;2022-10-19T00:49:48;9.20;99.90
59881;DHT22;45751;51.380;10.326;2022-10-19T00:52:17;9.20;99.90
59881;DHT22;45751;51.380;10.326;2022-10-19T00:54:46;9.10;99.90
59881;DHT22;45751;51.380;10.326;2022-10-19T00:57:14;9.00;99.90
59881;DHT22;45751;51.380;10.326;2022-10-19T00:59:42;9.00;99.90
59881;DHT22;45751;51.380;10.326;2022-10-19T01:02:10;9.00;99.90
59881;DHT22;45751;51.380;10.326;2022-10-19T01:04:41;8.90;99.90
59881;DHT22;45751;51.380;10.326;2022-10-19T01:07:09;8.90;99.90
59881;DHT22;45751;51.380;10.326;2022-10-19T01:09:36;8.80;99.90
59881;DHT22;45751;51.380;10.326;2022-10-19T01:18:11;8.70;99.90
59881;DHT22;45751;51.380;10.326;2022-10-19T01:23:30;8.60;99.90
59881;DHT22;45751;51.380;10.326;2022-10-19T01:29:05;8.60;99.90
59881;DHT22;45751;51.380;10.326;2022-10-19T01:31:51;8.60;99.90
59881;DHT22;45751;51.380;10.326;2022-10-19T01:34:35;8.60;99.90
59881;DHT22;45751;51.380;10.326;2022-10-19T01:37:07;8.60;99.90
59881;DHT22;45751;51.380;10.326;2022-10-19T01:39:51;8.60;99.90
59881;DHT22;45751;51.380;10.326;2022-10-19T01:42:24;8.60;99.90
59881;DHT22;45751;51.380;10.326;2022-10-19T01:45:04;8.60;99.90
59881;DHT22;45751;51.380;10.326;2022-10-19T01:47:46;8.70;99.90
59881;DHT22;45751;51.380;10.326;2022-10-19T01:50:24;8.70;99.90
59881;DHT22;45751;51.380;10.326;2022-10-19T01:52:54;8.70;99.90
59881;DHT22;45751;51.380;10.326;2022-10-19T01:55:23;8.70;99.90
59881;DHT22;45751;51.380;10.326;2022-10-19T01:57:57;8.70;99.90
59881;DHT22;45751;51.380;10.326;2022-10-19T02:00:26;8.70;99.90
59881;DHT22;45751;51.380;10.326;2022-10-19T02:02:54;8.70;99.90
59881;DHT22;45751;51.380;10.326;2022-10-19T02:05:25;8.80;99.90
59881;DHT22;45751;51.380;10.326;2022-10-19T02:07:57;8.70;99.90
59881;DHT22;45751;51.380;10.326;2022-10-19T02:10:25;8.80;99.90
59881;DHT22;45751;51.380;10.326;2022-10-19T02:12:53;8.80;99.90
59881;DHT22;45751;51.380;10.326;2022-10-19T02:15:22;8.80;99.90
59881;DHT22;45751;51.380;10.326;2022-10-19T02:17:54;8.80;99.90
59881;DHT22;45751;51.380;10.326;2022-10-19T02:20:23;8.90;99.90
59881;DHT22;45751;51.380;10.326;2022-10-19T02:22:49;8.90;99.90
59881;DHT22;45751;51.380;10.326;2022-10-19T02:25:16;8.90;99.90
59881;DHT22;45751;51.380;10.326;2022-10-19T02:27:43;8.90;99.90
59881;DHT22;45751;51.380;10.326;2022-10-19T02:30:13;9.00;99.90
59881;DHT22;45751;51.380;10.326;2022-10-19T02:32:41;9.00;99.90
59881;DHT22;45751;51.380;10.326;2022-10-19T02:35:10;8.90;99.90
59881;DHT22;45751;51.380;10.326;2022-10-19T02:37:38;8.90;99.90
59881;DHT22;45751;51.380;10.326;2022-10-19T02:40:07;8.90;99.90
59881;DHT22;45751;51.380;10.326;2022-10-19T02:42:57;8.80;99.90
59881;DHT22;45751;51.380;10.326;2022-10-19T02:45:36;8.90;99.90
59881;DHT22;45751;51.380;10.326;2022-10-19T02:48:07;8.80;99.90
59881;DHT22;45751;51.380;10.326;2022-10-19T02:50:36;8.80;99.90
59881;DHT22;45751;51.380;10.326;2022-10-19T02:53:03;8.80;99.90
59881;DHT22;45751;51.380;10.326;2022-10-19T02:55:30;8.80;99.90
59881;DHT22;45751;51.380;10.326;2022-10-19T02:57:57;8.80;99.90
59881;DHT22;45751;51.380;10.326;2022-10-19T03:00:23;8.70;99.90
59881;DHT22;45751;51.380;10.326;2022-10-19T03:02:50;8.70;99.90
59881;DHT22;45751;51.380;10.326;2022-10-19T03:05:17;8.70;99.90
59881;DHT22;45751;51.380;10.326;2022-10-19T03:07:44;8.60;99.90
59881;DHT22;45751;51.380;10.326;2022-10-19T03:10:10;8.60;99.90
59881;DHT22;45751;51.380;10.326;2022-10-19T03:12:37;8.60;99.90
59881;DHT22;45751;51.380;10.326;2022-10-19T03:15:04;8.60;99.90
59881;DHT22;45751;51.380;10.326;2022-10-19T03:17:31;8.60;99.90
59881;DHT22;45751;51.380;10.326;2022-10-19T03:19:59;8.60;99.90
59881;DHT22;45751;51.380;10.326;2022-10-19T03:22:25;8.50;99.90
59881;DHT22;45751;51.380;10.326;2022-10-19T03:24:52;8.50;99.90
59881;DHT22;45751;51.380;10.326;2022-10-19T03:27:19;8.50;99.90
59881;DHT22;45751;51.380;10.326;2022-10-19T03:29:46;8.50;99.90
59881;DHT22;45751;51.380;10.326;2022-10-19T03:32:12;8.50;99.90
59881;DHT22;45751;51.380;10.326;2022-10-19T03:34:39;8.50;99.90
59881;DHT22;45751;51.380;10.326;2022-10-19T03:37:06;8.50;99.90
59881;DHT22;45751;51.380;10.326;2022-10-19T03:39:34;8.50;99.90
59881;DHT22;45751;51.380;10.326;2022-10-19T03:42:01;8.50;99.90
59881;DHT22;45751;51.380;10.326;2022-10-19T03:44:27;8.50;99.90
59881;DHT22;45751;51.380;10.326;2022-10-19T03:46:54;8.50;99.90
59881;DHT22;45751;51.380;10.326;2022-10-19T03:49:21;8.50;99.90
59881;DHT22;45751;51.380;10.326;2022-10-19T03:51:48;8.50;99.90
59881;DHT22;45751;51.380;10.326;2022-10-19T03:54:15;8.50;99.90
59881;DHT22;45751;51.380;10.326;2022-10-19T03:56:42;8.60;99.90
59881;DHT22;45751;51.380;10.326;2022-10-19T03:59:12;8.60;99.90
59881;DHT22;45751;51.380;10.326;2022-10-19T04:01:43;8.60;99.90
59881;DHT22;45751;51.380;10.326;2022-10-19T04:04:16;8.60;99.90
59881;DHT22;45751;51.380;10.326;2022-10-19T04:06:45;8.50;99.90
59881;DHT22;45751;51.380;10.326;2022-10-19T04:09:15;8.50;99.90
59881;DHT22;45751;51.380;10.326;2022-10-19T04:11:42;8.50;99.90
59881;DHT22;45751;51.380;10.326;2022-10-19T04:14:11;8.60;99.90
59881;DHT22;45751;51.380;10.326;2022-10-19T04:16:52;8.50;99.90
59881;DHT22;45751;51.380;10.326;2022-10-19T04:19:19;8.60;99.90
59881;DHT22;45751;51.380;10.326;2022-10-19T04:21:47;8.60;99.90
59881;DHT22;45751;51.380;10.326;2022-10-19T04:24:16;8.60;99.90
59881;DHT22;45751;51.380;10.326;2022-10-19T04:26:46;8.60;99.90
59881;DHT22;45751;51.380;10.326;2022-10-19T04:29:14;8.60;99.90
59881;DHT22;45751;51.380;10.326;2022-10-19T04:31:42;8.70;99.90
59881;DHT22;45751;51.380;10.326;2022-10-19T04:34:09;8.60;99.90
59881;DHT22;45751;51.380;10.326;2022-10-19T04:36:37;8.70;99.90
59881;DHT22;45751;51.380;10.326;2022-10-19T04:39:04;8.60;99.90
59881;DHT22;45751;51.380;10.326;2022-10-19T04:41:31;8.70;99.90
59881;DHT22;45751;51.380;10.326;2022-10-19T04:44:00;8.70;99.90
59881;DHT22;45751;51.380;10.326;2022-10-19T04:46:28;8.70;99.90
59881;DHT22;45751;51.380;10.326;2022-10-19T04:48:55;8.70;99.90
59881;DHT22;45751;51.380;10.326;2022-10-19T04:51:23;8.70;99.90
59881;DHT22;45751;51.380;10.326;2022-10-19T04:53:50;8.70;99.90
59881;DHT22;45751;51.380;10.326;2022-10-19T04:56:23;8.70;99.90
59881;DHT22;45751;51.380;10.326;2022-10-19T04:58:55;8.70;99.90
59881;DHT22;45751;51.380;10.326;2022-10-19T05:01:24;8.70;99.90
59881;DHT22;45751;51.380;10.326;2022-10-19T05:03:59;8.70;99.90
59881;DHT22;45751;51.380;10.326;2022-10-19T05:06:27;8.70;99.90
59881;DHT22;45751;51.380;10.326;2022-10-19T05:08:54;8.70;99.90
59881;DHT22;45751;51.380;10.326;2022-10-19T05:11:21;8.70;99.90
59881;DHT22;45751;51.380;10.326;2022-10-19T05:13:48;8.70;99.90
59881;DHT22;45751;51.380;10.326;2022-10-19T05:16:17;8.70;99.90
59881;DHT22;45751;51.380;10.326;2022-10-19T05:18:52;8.70;99.90
59881;DHT22;45751;51.380;10.326;2022-10-19T05:21:21;8.70;99.90
59881;DHT22;45751;51.380;10.326;2022-10-19T05:23:51;8.70;99.90
59881;DHT22;45751;51.380;10.326;2022-10-19T05:26:20;8.70;99.90
59881;DHT22;45751;51.380;10.326;2022-10-19T05:28:58;8.70;99.90
59881;DHT22;45751;51.380;10.326;2022-10-19T05:31:30;8.70;99.90
59881;DHT22;45751;51.380;10.326;2022-10-19T05:33:57;8.70;99.90
59881;DHT22;45751;51.380;10.326;2022-10-19T05:36:28;8.70;99.90
59881;DHT22;45751;51.380;10.326;2022-10-19T05:38:59;8.80;99.90
59881;DHT22;45751;51.380;10.326;2022-10-19T05:41:26;8.80;99.90
59881;DHT22;45751;51.380;10.326;2022-10-19T05:43:56;8.80;99.90
59881;DHT22;45751;51.380;10.326;2022-10-19T05:46:25;8.80;99.90
59881;DHT22;45751;51.380;10.326;2022-10-19T05:48:54;8.80;99.90
59881;DHT22;45751;51.380;10.326;2022-10-19T05:51:22;8.80;99.90
59881;DHT22;45751;51.380;10.326;2022-10-19T05:53:49;8.80;99.90
59881;DHT22;45751;51.380;10.326;2022-10-19T05:56:23;8.80;99.90
59881;DHT22;45751;51.380;10.326;2022-10-19T05:58:50;8.80;99.90
59881;DHT22;45751;51.380;10.326;2022-10-19T06:01:18;8.80;99.90
59881;DHT22;45751;51.380;10.326;2022-10-19T06:03:46;8.90;99.90
59881;DHT22;45751;51.380;10.326;2022-10-19T06:06:13;8.80;99.90
59881;DHT22;45751;51.380;10.326;2022-10-19T06:08:40;8.80;99.90
59881;DHT22;45751;51.380;10.326;2022-10-19T06:13:42;8.80;99.90
59881;DHT22;45751;51.380;10.326;2022-10-19T06:16:10;8.80;99.90
59881;DHT22;45751;51.380;10.326;2022-10-19T06:18:38;8.90;99.90
59881;DHT22;45751;51.380;10.326;2022-10-19T06:21:11;8.90;99.90
59881;DHT22;45751;51.380;10.326;2022-10-19T06:23:38;8.90;99.90
59881;DHT22;45751;51.380;10.326;2022-10-19T06:26:07;8.90;99.90
59881;DHT22;45751;51.380;10.326;2022-10-19T06:28:35;8.90;99.90
59881;DHT22;45751;51.380;10.326;2022-10-19T06:31:05;8.90;99.90
59881;DHT22;45751;51.380;10.326;2022-10-19T06:33:35;8.90;99.90
59881;DHT22;45751;51.380;10.326;2022-10-19T06:36:14;9.00;99.90
59881;DHT22;45751;51.380;10.326;2022-10-19T06:38:42;9.00;99.90
59881;DHT22;45751;51.380;10.326;2022-10-19T06:41:09;9.00;99.90
59881;DHT22;45751;51.380;10.326;2022-10-19T06:43:36;9.00;99.90
59881;DHT22;45751;51.380;10.326;2022-10-19T06:46:05;9.10;99.90
59881;DHT22;45751;51.380;10.326;2022-10-19T06:48:33;9.10;99.90
59881;DHT22;45751;51.380;10.326;2022-10-19T06:51:02;9.10;99.90
59881;DHT22;45751;51.380;10.326;2022-10-19T06:53:35;9.10;99.90
59881;DHT22;45751;51.380;10.326;2022-10-19T06:56:04;9.20;99.90
59881;DHT22;45751;51.380;10.326;2022-10-19T06:58:38;9.20;99.90
59881;DHT22;45751;51.380;10.326;2022-10-19T07:01:06;9.20;99.90
59881;DHT22;45751;51.380;10.326;2022-10-19T07:03:35;9.20;99.90
59881;DHT22;45751;51.380;10.326;2022-10-19T07:06:04;9.30;99.90
59881;DHT22;45751;51.380;10.326;2022-10-19T07:08:32;9.30;99.90
59881;DHT22;45751;51.380;10.326;2022-10-19T07:11:02;9.30;99.90
59881;DHT22;45751;51.380;10.326;2022-10-19T07:13:30;9.30;99.90
59881;DHT22;45751;51.380;10.326;2022-10-19T07:16:11;9.40;99.90
59881;DHT22;45751;51.380;10.326;2022-10-19T07:18:45;9.40;99.90
59881;DHT22;45751;51.380;10.326;2022-10-19T07:21:14;9.50;99.90
59881;DHT22;45751;51.380;10.326;2022-10-19T07:23:42;9.50;99.90
59881;DHT22;45751;51.380;10.326;2022-10-19T07:26:14;9.50;99.90
59881;DHT22;45751;51.380;10.326;2022-10-19T07:28:43;9.50;99.90
59881;DHT22;45751;51.380;10.326;2022-10-19T07:31:13;9.60;99.90
59881;DHT22;45751;51.380;10.326;2022-10-19T07:33:40;9.60;99.90
59881;DHT22;45751;51.380;10.326;2022-10-19T07:36:08;9.60;99.90
59881;DHT22;45751;51.380;10.326;2022-10-19T07:38:35;9.70;99.90
59881;DHT22;45751;51.380;10.326;2022-10-19T07:41:08;9.70;99.90
59881;DHT22;45751;51.380;10.326;2022-10-19T07:43:35;9.80;99.90
59881;DHT22;45751;51.380;10.326;2022-10-19T07:46:08;9.80;99.90
59881;DHT22;45751;51.380;10.326;2022-10-19T07:48:36;9.80;99.90
59881;DHT22;45751;51.380;10.326;2022-10-19T07:51:05;9.80;99.90
59881;DHT22;45751;51.380;10.326;2022-10-19T07:53:33;9.80;99.90
59881;DHT22;45751;51.380;10.326;2022-10-19T07:56:11;9.90;99.90
59881;DHT22;45751;51.380;10.326;2022-10-19T07:58:39;9.90;99.90
59881;DHT22;45751;51.380;10.326;2022-10-19T08:01:08;9.90;99.90
59881;DHT22;45751;51.380;10.326;2022-10-19T08:03:36;9.90;99.90
59881;DHT22;45751;51.380;10.326;2022-10-19T08:06:23;9.90;99.90
59881;DHT22;45751;51.380;10.326;2022-10-19T08:08:51;10.00;99.90
59881;DHT22;45751;51.380;10.326;2022-10-19T08:11:24;10.00;99.90
59881;DHT22;45751;51.380;10.326;2022-10-19T08:13:51;10.00;99.90
59881;DHT22;45751;51.380;10.326;2022-10-19T08:16:31;10.00;99.90
59881;DHT22;45751;51.380;10.326;2022-10-19T08:19:01;10.00;99.90
59881;DHT22;45751;51.380;10.326;2022-10-19T08:21:29;10.10;99.90
59881;DHT22;45751;51.380;10.326;2022-10-19T08:23:57;10.10;99.90
59881;DHT22;45751;51.380;10.326;2022-10-19T08:26:26;10.10;99.90
59881;DHT22;45751;51.380;10.326;2022-10-19T08:29:01;10.20;99.90
59881;DHT22;45751;51.380;10.326;2022-10-19T08:31:29;10.20;99.90
59881;DHT22;45751;51.380;10.326;2022-10-19T08:33:56;10.30;99.90
59881;DHT22;45751;51.380;10.326;2022-10-19T08:36:23;10.30;99.90
59881;DHT22;45751;51.380;10.326;2022-10-19T08:38:50;10.40;99.90
59881;DHT22;45751;51.380;10.326;2022-10-19T08:47:03;10.50;99.90
59881;DHT22;45751;51.380;10.326;2022-10-19T08:49:33;10.60;99.90
59881;DHT22;45751;51.380;10.326;2022-10-19T08:52:04;10.60;99.90
59881;DHT22;45751;51.380;10.326;2022-10-19T08:54:45;10.60;99.90
59881;DHT22;45751;51.380;10.326;2022-10-19T09:06:08;10.80;99.90
59881;DHT22;45751;51.380;10.326;2022-10-19T09:08:14;10.80;99.90
59881;DHT22;45751;51.380;10.326;2022-10-19T09:10:46;10.90;99.90
59881;DHT22;45751;51.380;10.326;2022-10-19T09:13:34;10.90;99.90
59881;DHT22;45751;51.380;10.326;2022-10-19T09:16:19;11.00;99.90
59881;DHT22;45751;51.380;10.326;2022-10-19T09:18:46;11.00;99.50
59881;DHT22;45751;51.380;10.326;2022-10-19T09:21:19;11.10;97.70
59881;DHT22;45751;51.380;10.326;2022-10-19T09:26:28;11.20;94.50
59881;DHT22;45751;51.380;10.326;2022-10-19T09:29:14;11.20;93.80
59881;DHT22;45751;51.380;10.326;2022-10-19T09:31:43;11.30;93.60
59881;DHT22;45751;51.380;10.326;2022-10-19T09:34:44;11.30;92.80
59881;DHT22;45751;51.380;10.326;2022-10-19T09:37:03;11.40;91.90
59881;DHT22;45751;51.380;10.326;2022-10-19T09:39:30;11.40;91.40
59881;DHT22;45751;51.380;10.326;2022-10-19T09:44:33;11.30;90.10
59881;DHT22;45751;51.380;10.326;2022-10-19T09:49:47;11.30;90.80
59881;DHT22;45751;51.380;10.326;2022-10-19T09:52:39;11.30;91.00
59881;DHT22;45751;51.380;10.326;2022-10-19T09:57:49;11.20;90.30
59881;DHT22;45751;51.380;10.326;2022-10-19T10:00:24;11.20;90.00
59881;DHT22;45751;51.380;10.326;2022-10-19T10:02:54;11.20;89.80
59881;DHT22;45751;51.380;10.326;2022-10-19T10:05:35;11.20;89.10
59881;DHT22;45751;51.380;10.326;2022-10-19T10:08:05;11.20;88.40
59881;DHT22;45751;51.380;10.326;2022-10-19T10:10:44;11.30;88.50
59881;DHT22;45751;51.380;10.326;2022-10-19T10:13:16;11.30;89.00
59881;DHT22;45751;51.380;10.326;2022-10-19T10:16:04;11.40;88.90
59881;DHT22;45751;51.380;10.326;2022-10-19T10:18:36;11.40;88.90
59881;DHT22;45751;51.380;10.326;2022-10-19T10:21:19;11.40;89.90
59881;DHT22;45751;51.380;10.326;2022-10-19T10:26:42;11.50;86.00
59881;DHT22;45751;51.380;10.326;2022-10-19T10:29:30;11.60;85.60
59881;DHT22;45751;51.380;10.326;2022-10-19T10:32:06;11.60;87.00
59881;DHT22;45751;51.380;10.326;2022-10-19T10:34:35;11.60;87.40
59881;DHT22;45751;51.380;10.326;2022-10-19T10:37:36;11.70;88.40
59881;DHT22;45751;51.380;10.326;2022-10-19T10:40:05;11.80;89.70
59881;DHT22;45751;51.380;10.326;2022-10-19T10:42:35;11.90;90.00
59881;DHT22;45751;51.380;10.326;2022-10-19T10:45:18;11.90;88.40
59881;DHT22;45751;51.380;10.326;2022-10-19T10:47:47;12.00;88.80
59881;DHT22;45751;51.380;10.326;2022-10-19T10:50:32;12.00;88.20
59881;DHT22;45751;51.380;10.326;2022-10-19T10:53:05;12.00;86.70
59881;DHT22;45751;51.380;10.326;2022-10-19T10:55:32;12.00;87.10
59881;DHT22;45751;51.380;10.326;2022-10-19T10:58:16;12.10;86.30
59881;DHT22;45751;51.380;10.326;2022-10-19T11:00:45;12.10;85.90
59881;DHT22;45751;51.380;10.326;2022-10-19T11:03:19;12.10;86.30
59881;DHT22;45751;51.380;10.326;2022-10-19T11:05:55;12.20;86.50
59881;DHT22;45751;51.380;10.326;2022-10-19T11:11:21;12.20;85.30
59881;DHT22;45751;51.380;10.326;2022-10-19T11:16:57;12.30;88.60
59881;DHT22;45751;51.380;10.326;2022-10-19T11:19:33;12.40;87.70
59881;DHT22;45751;51.380;10.326;2022-10-19T11:22:37;12.50;86.80
59881;DHT22;45751;51.380;10.326;2022-10-19T11:31:15;12.80;82.20
59881;DHT22;45751;51.380;10.326;2022-10-19T11:33:53;12.80;82.60
59881;DHT22;45751;51.380;10.326;2022-10-19T11:39:30;13.00;79.80
59881;DHT22;45751;51.380;10.326;2022-10-19T11:50:48;13.20;75.80
59881;DHT22;45751;51.380;10.326;2022-10-19T11:59:37;13.10;74.00
59881;DHT22;45751;51.380;10.326;2022-10-19T12:05:20;13.00;74.90
59881;DHT22;45751;51.380;10.326;2022-10-19T12:13:04;12.80;75.40
59881;DHT22;45751;51.380;10.326;2022-10-19T12:15:38;12.80;75.90
59881;DHT22;45751;51.380;10.326;2022-10-19T12:18:15;12.90;75.80
59881;DHT22;45751;51.380;10.326;2022-10-19T12:20:50;13.00;76.20
59881;DHT22;45751;51.380;10.326;2022-10-19T12:23:24;13.10;75.70
59881;DHT22;45751;51.380;10.326;2022-10-19T12:25:53;13.20;74.70
59881;DHT22;45751;51.380;10.326;2022-10-19T12:28:26;13.40;74.70
59881;DHT22;45751;51.380;10.326;2022-10-19T12:30:55;13.40;73.30
59881;DHT22;45751;51.380;10.326;2022-10-19T12:33:51;13.50;72.80
59881;DHT22;45751;51.380;10.326;2022-10-19T12:38:58;13.60;70.80
59881;DHT22;45751;51.380;10.326;2022-10-19T12:41:47;13.50;71.00
59881;DHT22;45751;51.380;10.326;2022-10-19T12:47:26;13.50;70.90
59881;DHT22;45751;51.380;10.326;2022-10-19T12:49:54;13.50;71.30
59881;DHT22;45751;51.380;10.326;2022-10-19T12:52:44;13.50;71.10
59881;DHT22;45751;51.380;10.326;2022-10-19T12:57:47;13.60;71.40
59881;DHT22;45751;51.380;10.326;2022-10-19T13:00:24;13.70;71.90
59881;DHT22;45751;51.380;10.326;2022-10-19T13:03:12;13.90;71.80
59881;DHT22;45751;51.380;10.326;2022-10-19T13:05:39;14.00;71.20
59881;DHT22;45751;51.380;10.326;2022-10-19T13:08:07;14.10;69.70
59881;DHT22;45751;51.380;10.326;2022-10-19T13:10:40;14.20;69.90
59881;DHT22;45751;51.380;10.326;2022-10-19T13:19:00;14.70;68.30
59881;DHT22;45751;51.380;10.326;2022-10-19T13:24:35;15.00;67.20
59881;DHT22;45751;51.380;10.326;2022-10-19T13:35:23;15.40;65.00
59881;DHT22;45751;51.380;10.326;2022-10-19T13:38:08;15.50;64.50
59881;DHT22;45751;51.380;10.326;2022-10-19T13:43:59;15.60;64.90
59881;DHT22;45751;51.380;10.326;2022-10-19T13:52:21;15.60;63.60
59881;DHT22;45751;51.380;10.326;2022-10-19T13:55:11;15.40;63.10
59881;DHT22;45751;51.380;10.326;2022-10-19T14:00:43;15.00;63.70
59881;DHT22;45751;51.380;10.326;2022-10-19T14:03:55;14.90;64.30
59881;DHT22;45751;51.380;10.326;2022-10-19T14:06:35;14.80;64.50
59881;DHT22;45751;51.380;10.326;2022-10-19T14:12:09;14.50;64.50
59881;DHT22;45751;51.380;10.326;2022-10-19T14:14:41;14.50;64.90
59881;DHT22;45751;51.380;10.326;2022-10-19T14:19:49;14.40;65.90
59881;DHT22;45751;51.380;10.326;2022-10-19T14:22:35;14.30;65.40
59881;DHT22;45751;51.380;10.326;2022-10-19T14:25:21;14.30;65.90
59881;DHT22;45751;51.380;10.326;2022-10-19T14:28:04;14.20;65.80
59881;DHT22;45751;51.380;10.326;2022-10-19T14:30:34;14.30;66.20
59881;DHT22;45751;51.380;10.326;2022-10-19T14:33:07;14.20;65.80
59881;DHT22;45751;51.380;10.326;2022-10-19T14:35:39;14.20;66.30
59881;DHT22;45751;51.380;10.326;2022-10-19T14:38:08;14.30;65.90
59881;DHT22;45751;51.380;10.326;2022-10-19T14:40:41;14.30;65.80
59881;DHT22;45751;51.380;10.326;2022-10-19T14:46:12;14.10;65.80
59881;DHT22;45751;51.380;10.326;2022-10-19T14:48:43;14.00;66.00
59881;DHT22;45751;51.380;10.326;2022-10-19T14:56:59;14.00;66.90
59881;DHT22;45751;51.380;10.326;2022-10-19T14:59:42;13.90;66.30
59881;DHT22;45751;51.380;10.326;2022-10-19T15:02:20;13.90;66.20
59881;DHT22;45751;51.380;10.326;2022-10-19T15:04:49;13.90;66.00
59881;DHT22;45751;51.380;10.326;2022-10-19T15:07:27;13.90;66.30
59881;DHT22;45751;51.380;10.326;2022-10-19T15:09:58;13.90;66.70
59881;DHT22;45751;51.380;10.326;2022-10-19T15:12:34;13.80;67.20
59881;DHT22;45751;51.380;10.326;2022-10-19T15:15:18;13.70;66.80
59881;DHT22;45751;51.380;10.326;2022-10-19T15:17:53;13.60;66.70
59881;DHT22;45751;51.380;10.326;2022-10-19T15:20:38;13.50;66.60
59881;DHT22;45751;51.380;10.326;2022-10-19T15:23:38;13.40;66.50
59881;DHT22;45751;51.380;10.326;2022-10-19T15:26:19;13.30;66.50
59881;DHT22;45751;51.380;10.326;2022-10-19T15:28:47;13.20;66.70
59881;DHT22;45751;51.380;10.326;2022-10-19T15:31:18;13.20;67.40
59881;DHT22;45751;51.380;10.326;2022-10-19T15:34:22;13.10;67.90
59881;DHT22;45751;51.380;10.326;2022-10-19T15:36:59;13.00;67.90
59881;DHT22;45751;51.380;10.326;2022-10-19T15:39:31;13.00;67.70
59881;DHT22;45751;51.380;10.326;2022-10-19T15:44:58;12.80;68.80
59881;DHT22;45751;51.380;10.326;2022-10-19T15:47:25;12.80;68.90
59881;DHT22;45751;51.380;10.326;2022-10-19T15:50:00;12.70;69.00
59881;DHT22;45751;51.380;10.326;2022-10-19T15:52:31;12.70;69.30
59881;DHT22;45751;51.380;10.326;2022-10-19T15:54:59;12.60;69.20
59881;DHT22;45751;51.380;10.326;2022-10-19T15:57:33;12.60;69.50
59881;DHT22;45751;51.380;10.326;2022-10-19T16:00:12;12.50;69.60
59881;DHT22;45751;51.380;10.326;2022-10-19T16:02:40;12.50;70.30
59881;DHT22;45751;51.380;10.326;2022-10-19T16:05:07;12.40;70.40
59881;DHT22;45751;51.380;10.326;2022-10-19T16:07:37;12.40;70.50
59881;DHT22;45751;51.380;10.326;2022-10-19T16:10:05;12.30;70.60
59881;DHT22;45751;51.380;10.326;2022-10-19T16:12:32;12.30;71.00
59881;DHT22;45751;51.380;10.326;2022-10-19T16:14:59;12.20;71.10
59881;DHT22;45751;51.380;10.326;2022-10-19T16:17:26;12.20;71.40
59881;DHT22;45751;51.380;10.326;2022-10-19T16:19:53;12.20;71.50
59881;DHT22;45751;51.380;10.326;2022-10-19T16:22:20;12.20;71.70
59881;DHT22;45751;51.380;10.326;2022-10-19T16:24:46;12.10;72.00
59881;DHT22;45751;51.380;10.326;2022-10-19T16:27:13;12.00;72.00
59881;DHT22;45751;51.380;10.326;2022-10-19T16:29:43;12.00;71.80
59881;DHT22;45751;51.380;10.326;2022-10-19T16:32:10;11.90;72.20
59881;DHT22;45751;51.380;10.326;2022-10-19T16:34:37;11.90;71.80
59881;DHT22;45751;51.380;10.326;2022-10-19T16:37:04;11.80;72.00
59881;DHT22;45751;51.380;10.326;2022-10-19T16:39:33;11.70;73.20
59881;DHT22;45751;51.380;10.326;2022-10-19T16:42:00;11.60;72.30
59881;DHT22;45751;51.380;10.326;2022-10-19T16:44:27;11.50;72.50
59881;DHT22;45751;51.380;10.326;2022-10-19T16:46:57;11.50;73.30
59881;DHT22;45751;51.380;10.326;2022-10-19T16:49:25;11.40;73.10
59881;DHT22;45751;51.380;10.326;2022-10-19T16:51:52;11.30;73.30
59881;DHT22;45751;51.380;10.326;2022-10-19T16:54:23;11.30;73.50
59881;DHT22;45751;51.380;10.326;2022-10-19T16:56:52;11.10;73.90
59881;DHT22;45751;51.380;10.326;2022-10-19T16:59:21;11.10;74.60
59881;DHT22;45751;51.380;10.326;2022-10-19T17:01:48;11.10;75.00
59881;DHT22;45751;51.380;10.326;2022-10-19T17:04:16;11.00;75.20
59881;DHT22;45751;51.380;10.326;2022-10-19T17:06:43;11.00;75.60
59881;DHT22;45751;51.380;10.326;2022-10-19T17:09:10;10.90;76.30
59881;DHT22;45751;51.380;10.326;2022-10-19T17:12:00;10.80;76.80
59881;DHT22;45751;51.380;10.326;2022-10-19T17:14:27;10.80;77.20
59881;DHT22;45751;51.380;10.326;2022-10-19T17:16:54;10.70;77.50
59881;DHT22;45751;51.380;10.326;2022-10-19T17:19:21;10.70;78.20
59881;DHT22;45751;51.380;10.326;2022-10-19T17:21:48;10.60;79.00
59881;DHT22;45751;51.380;10.326;2022-10-19T17:24:17;10.70;79.30
59881;DHT22;45751;51.380;10.326;2022-10-19T17:26:49;10.60;79.80
59881;DHT22;45751;51.380;10.326;2022-10-19T17:29:16;10.70;79.40
59881;DHT22;45751;51.380;10.326;2022-10-19T17:31:44;10.60;79.00
59881;DHT22;45751;51.380;10.326;2022-10-19T17:34:11;10.60;79.00
59881;DHT22;45751;51.380;10.326;2022-10-19T17:36:40;10.50;79.20
59881;DHT22;45751;51.380;10.326;2022-10-19T17:39:11;10.50;79.70
59881;DHT22;45751;51.380;10.326;2022-10-19T17:41:39;10.40;80.00
59881;DHT22;45751;51.380;10.326;2022-10-19T17:44:06;10.40;80.60
59881;DHT22;45751;51.380;10.326;2022-10-19T17:46:34;10.30;80.90
59881;DHT22;45751;51.380;10.326;2022-10-19T17:49:01;10.30;81.40
59881;DHT22;45751;51.380;10.326;2022-10-19T17:51:30;10.20;81.70
59881;DHT22;45751;51.380;10.326;2022-10-19T17:54:04;10.20;81.90
59881;DHT22;45751;51.380;10.326;2022-10-19T17:56:31;10.20;82.40
59881;DHT22;45751;51.380;10.326;2022-10-19T17:58:59;10.20;82.70
59881;DHT22;45751;51.380;10.326;2022-10-19T18:01:29;10.10;83.30
59881;DHT22;45751;51.380;10.326;2022-10-19T18:03:56;10.10;83.40
59881;DHT22;45751;51.380;10.326;2022-10-19T18:06:25;10.10;83.90